Terminal Aerodrome Forecast
Issued by NWS

Home | Current Version | Previous Version | Text Only | Print | Product List | Glossary On
Versions: 1 2 3 4 5 6 7 8 9 10 11 12 13 14 15 16 17 18
000
FTUS41 KBOX 041125
TAFBAF
TAF
KBAF 041125Z 0412/0512 VRB03KT P6SM VCSH OVC025
     FM041700 06005KT P6SM VCSH OVC015
     FM042000 05006KT P6SM -RA OVC010
     FM050400 03007KT P6SM VCSH OVC008
     FM050700 03007KT P6SM VCSH OVC008=

USA.gov is the U.S. government's official web portal to all federal, state and local government web resources and services.